createdAt,value
2022-08-28T00:00:59.353Z,98106.45
2022-08-28T00:02:01.127Z,98106.64
2022-08-28T00:03:02.943Z,98107.81
2022-08-28T00:04:07.541Z,98103.06
2022-08-28T00:05:11.637Z,98108.26
2022-08-28T00:06:13.514Z,98110.32
2022-08-28T00:07:15.536Z,98108.93
2022-08-28T00:08:17.909Z,98109.86
2022-08-28T00:09:19.663Z,98112.02
2022-08-28T00:10:24.048Z,98109.86
2022-08-28T00:11:25.795Z,98109.34
2022-08-28T00:12:28.134Z,98108.48
2022-08-28T00:13:30.203Z,98108.69
2022-08-28T00:14:32.171Z,98110.30
2022-08-28T00:15:37.911Z,98109.05
2022-08-28T00:16:39.663Z,98106.84
2022-08-28T00:17:42.305Z,98104.80
2022-08-28T00:18:44.852Z,98104.91
2022-08-28T00:19:49.185Z,98104.88
2022-08-28T00:20:51.645Z,98102.04
2022-08-28T00:21:53.990Z,98102.00
2022-08-28T00:22:56.399Z,98105.73
2022-08-28T00:23:58.118Z,98103.77
2022-08-28T00:24:59.843Z,98099.20
2022-08-28T00:26:01.704Z,98100.81
2022-08-28T00:27:22.344Z,98101.08
2022-08-28T00:28:24.600Z,98103.02
2022-08-28T00:29:29.320Z,98099.82
2022-08-28T00:30:41.830Z,98102.64
2022-08-28T00:31:43.571Z,98101.24
2022-08-28T00:32:45.488Z,98100.89
2022-08-28T00:33:48.283Z,98097.87
2022-08-28T00:34:50.521Z,98099.45
2022-08-28T00:35:52.327Z,98100.71
2022-08-28T00:36:54.037Z,98100.55
2022-08-28T00:37:56.836Z,98099.30
2022-08-28T00:39:00.233Z,98097.45
2022-08-28T00:40:02.320Z,98094.90
2022-08-28T00:41:05.043Z,98092.94
2022-08-28T00:42:07.223Z,98096.48
2022-08-28T00:43:11.170Z,98093.46
2022-08-28T00:44:17.669Z,98093.27
2022-08-28T00:45:19.854Z,98093.19
2022-08-28T00:46:24.245Z,98093.44
2022-08-28T00:47:26.615Z,98096.11
2022-08-28T00:48:28.450Z,98095.17
2022-08-28T00:49:35.990Z,98097.55
2022-08-28T00:51:00.134Z,98095.84
2022-08-28T00:52:12.186Z,98096.89
2022-08-28T00:53:14.095Z,98099.15
2022-08-28T00:54:15.915Z,98096.55
2022-08-28T00:55:25.622Z,98098.05
2022-08-28T00:56:30.302Z,98096.20
2022-08-28T00:57:42.679Z,98096.63
2022-08-28T00:58:47.846Z,98096.54
2022-08-28T00:59:49.808Z,98095.02
2022-08-28T01:00:52.464Z,98093.75
2022-08-28T01:01:57.894Z,98092.30
2022-08-28T01:03:00.647Z,98088.79
2022-08-28T01:04:06.251Z,98089.70
2022-08-28T01:05:09.948Z,98087.71
2022-08-28T01:06:16.039Z,98088.75
2022-08-28T01:07:18.090Z,98085.02
2022-08-28T01:08:20.457Z,98084.66
2022-08-28T01:09:29.613Z,98084.80
2022-08-28T01:10:34.763Z,98086.08
2022-08-28T01:11:36.652Z,98086.63
2022-08-28T01:12:38.860Z,98090.08
2022-08-28T01:13:46.922Z,98086.77
2022-08-28T01:14:52.315Z,98082.70
2022-08-28T01:15:55.889Z,98084.01
2022-08-28T01:16:58.215Z,98085.91
2022-08-28T01:18:08.317Z,98086.86
2022-08-28T01:19:26.890Z,98083.73
2022-08-28T01:20:32.527Z,98087.38
2022-08-28T01:21:49.603Z,98086.58
2022-08-28T01:23:12.147Z,98086.71
2022-08-28T01:24:18.539Z,98089.02
2022-08-28T01:25:24.215Z,98091.57
2022-08-28T01:26:28.279Z,98092.40
2022-08-28T01:27:30.145Z,98091.77
2022-08-28T01:28:31.834Z,98092.56
2022-08-28T01:29:33.896Z,98092.77
2022-08-28T01:30:35.905Z,98090.14
2022-08-28T01:31:38.781Z,98090.83
2022-08-28T01:32:48.467Z,98089.38
2022-08-28T01:33:50.247Z,98087.66
2022-08-28T01:34:52.902Z,98087.53
2022-08-28T01:35:54.596Z,98085.58
2022-08-28T01:36:58.580Z,98085.05
2022-08-28T01:38:05.425Z,98085.16
2022-08-28T01:39:19.946Z,98090.67
2022-08-28T01:40:29.163Z,98089.01
2022-08-28T01:41:30.916Z,98090.61
2022-08-28T01:42:39.259Z,98091.02
2022-08-28T01:43:43.029Z,98092.14
2022-08-28T01:44:44.666Z,98093.16
2022-08-28T01:45:53.179Z,98093.25
2022-08-28T01:46:58.134Z,98096.13
2022-08-28T01:47:59.854Z,98095.02
2022-08-28T01:49:01.657Z,98096.38
2022-08-28T01:50:06.473Z,98093.86
2022-08-28T01:51:10.318Z,98092.14
2022-08-28T01:52:12.055Z,98090.81
2022-08-28T01:53:19.455Z,98092.59
2022-08-28T01:54:28.781Z,98095.70
2022-08-28T01:55:32.459Z,98093.10
2022-08-28T01:56:35.358Z,98096.45
2022-08-28T01:57:45.492Z,98093.58
2022-08-28T01:58:48.267Z,98093.90
2022-08-28T01:59:51.348Z,98091.52
2022-08-28T02:00:53.654Z,98089.38
2022-08-28T02:01:56.707Z,98088.90
2022-08-28T02:03:00.759Z,98088.20
2022-08-28T02:04:04.483Z,98088.48
2022-08-28T02:05:08.178Z,98089.16
2022-08-28T02:06:11.349Z,98089.95
2022-08-28T02:07:12.990Z,98087.09
2022-08-28T02:08:15.127Z,98086.67
2022-08-28T02:09:17.713Z,98086.30
2022-08-28T02:10:22.616Z,98087.40
2022-08-28T02:11:26.024Z,98081.70
2022-08-28T02:12:27.793Z,98082.09
2022-08-28T02:13:29.597Z,98082.34
2022-08-28T02:14:32.019Z,98082.31
2022-08-28T02:15:36.166Z,98082.44
2022-08-28T02:16:37.884Z,98082.19
2022-08-28T02:17:39.532Z,98077.83
2022-08-28T02:18:41.900Z,98082.19
2022-08-28T02:19:43.563Z,98078.34
2022-08-28T02:20:45.218Z,98078.83
2022-08-28T02:21:46.958Z,98078.10
2022-08-28T02:22:48.654Z,98079.45
2022-08-28T02:23:50.508Z,98079.61
2022-08-28T02:24:52.877Z,98079.32
2022-08-28T02:25:54.762Z,98080.67
2022-08-28T02:26:56.679Z,98077.67
2022-08-28T02:27:58.675Z,98077.67
2022-08-28T02:29:00.922Z,98080.55
2022-08-28T02:30:04.962Z,98079.25
2022-08-28T02:31:10.747Z,98077.77
2022-08-28T02:32:13.054Z,98074.48
2022-08-28T02:33:16.148Z,98076.64
2022-08-28T02:34:18.186Z,98077.52
2022-08-28T02:35:22.957Z,98078.33
2022-08-28T02:36:24.644Z,98070.28
2022-08-28T02:37:26.434Z,98071.48
2022-08-28T02:38:29.128Z,98072.13
2022-08-28T02:39:32.729Z,98067.13
2022-08-28T02:40:34.840Z,98071.22
2022-08-28T02:41:36.790Z,98071.70
2022-08-28T02:42:38.538Z,98068.85
2022-08-28T02:43:40.868Z,98070.90
2022-08-28T02:44:42.597Z,98068.17
2022-08-28T02:45:44.374Z,98066.26
2022-08-28T02:46:46.166Z,98065.79
2022-08-28T02:47:51.270Z,98067.55
2022-08-28T02:48:52.930Z,98069.75
2022-08-28T02:49:54.714Z,98072.95
2022-08-28T02:51:02.920Z,98069.96
2022-08-28T02:52:06.812Z,98071.67
2022-08-28T02:53:08.659Z,98068.55
2022-08-28T02:54:10.344Z,98068.27
2022-08-28T02:55:15.054Z,98067.73
2022-08-28T02:56:17.193Z,98071.71
2022-08-28T02:57:18.857Z,98071.77
2022-08-28T02:58:20.704Z,98073.86
2022-08-28T02:59:22.788Z,98074.23
2022-08-28T03:00:26.418Z,98079.73
2022-08-28T03:01:28.155Z,98076.62
2022-08-28T03:02:29.962Z,98077.64
2022-08-28T03:03:32.597Z,98081.25
2022-08-28T03:04:36.067Z,98081.89
2022-08-28T03:05:38.061Z,98080.10
2022-08-28T03:06:39.718Z,98080.69
2022-08-28T03:07:42.628Z,98083.54
2022-08-28T03:08:44.982Z,98080.13
2022-08-28T03:09:46.612Z,98077.46
2022-08-28T03:10:48.257Z,98074.91
2022-08-28T03:11:53.939Z,98078.90
2022-08-28T03:12:55.681Z,98077.77
2022-08-28T03:13:57.636Z,98080.77
2022-08-28T03:14:59.481Z,98076.95
2022-08-28T03:16:01.697Z,98078.29
2022-08-28T03:17:03.780Z,98079.23
2022-08-28T03:18:08.041Z,98076.39
2022-08-28T03:19:12.917Z,98078.71
2022-08-28T03:20:16.259Z,98078.02
2022-08-28T03:21:18.210Z,98079.89
2022-08-28T03:22:40.841Z,98079.98
2022-08-28T03:23:42.639Z,98082.64
2022-08-28T03:24:44.927Z,98078.36
2022-08-28T03:25:46.559Z,98081.81
2022-08-28T03:26:48.246Z,98077.46
2022-08-28T03:27:50.742Z,98080.04
2022-08-28T03:28:53.829Z,98079.16
2022-08-28T03:29:55.670Z,98081.42
2022-08-28T03:30:57.928Z,98079.72
2022-08-28T03:32:00.331Z,98082.19
2022-08-28T03:33:02.142Z,98081.73
2022-08-28T03:34:04.687Z,98081.24
2022-08-28T03:35:06.975Z,98078.83
2022-08-28T03:36:10.373Z,98080.35
2022-08-28T03:37:12.032Z,98080.98
2022-08-28T03:38:14.308Z,98083.16
2022-08-28T03:39:16.135Z,98081.58
2022-08-28T03:40:18.478Z,98085.16
2022-08-28T03:41:23.145Z,98088.66
2022-08-28T03:42:24.803Z,98090.13
2022-08-28T03:43:27.963Z,98088.98
2022-08-28T03:44:29.844Z,98095.48
2022-08-28T03:45:31.493Z,98094.39
2022-08-28T03:46:33.912Z,98095.42
2022-08-28T03:47:37.781Z,98096.02
2022-08-28T03:48:42.610Z,98097.30
2022-08-28T03:49:46.696Z,98099.08
2022-08-28T03:50:48.518Z,98100.11
2022-08-28T03:51:50.945Z,98100.62
2022-08-28T03:52:52.650Z,98099.41
2022-08-28T03:53:54.611Z,98100.48
2022-08-28T03:54:56.265Z,98101.53
2022-08-28T03:55:58.076Z,98098.61
2022-08-28T03:57:00.390Z,98101.52
2022-08-28T03:58:02.524Z,98102.29
2022-08-28T03:59:05.302Z,98098.79
2022-08-28T04:00:11.099Z,98097.79
2022-08-28T04:01:15.478Z,98100.92
2022-08-28T04:02:19.376Z,98095.63
2022-08-28T04:03:21.639Z,98097.92
2022-08-28T04:04:23.484Z,98099.81
2022-08-28T04:05:25.123Z,98100.95
2022-08-28T04:06:28.015Z,98099.51
2022-08-28T04:07:29.710Z,98098.66
2022-08-28T04:08:31.552Z,98101.66
2022-08-28T04:09:33.213Z,98102.58
2022-08-28T04:10:36.649Z,98101.10
2022-08-28T04:11:40.653Z,98099.77
2022-08-28T04:12:43.608Z,98103.01
2022-08-28T04:13:46.022Z,98100.65
2022-08-28T04:14:48.066Z,98103.09
2022-08-28T04:16:02.725Z,98100.40
2022-08-28T04:17:08.243Z,98099.55
2022-08-28T04:18:11.367Z,98099.41
2022-08-28T04:19:13.194Z,98100.39
2022-08-28T04:20:14.942Z,98099.63
2022-08-28T04:21:21.032Z,98102.14
2022-08-28T04:22:23.704Z,98102.33
2022-08-28T04:23:25.492Z,98103.77
2022-08-28T04:24:27.276Z,98102.09
2022-08-28T04:25:29.041Z,98101.46
2022-08-28T04:26:36.376Z,98101.09
2022-08-28T04:27:38.256Z,98099.85
2022-08-28T04:28:42.325Z,98101.49
2022-08-28T04:29:44.016Z,98103.48
2022-08-28T04:30:46.238Z,98105.94
2022-08-28T04:31:48.085Z,98102.44
2022-08-28T04:32:50.019Z,98101.67
2022-08-28T04:33:51.717Z,98095.65
2022-08-28T04:34:54.017Z,98095.83
2022-08-28T04:35:56.975Z,98097.90
2022-08-28T04:36:58.821Z,98096.05
2022-08-28T04:38:00.832Z,98094.53
2022-08-28T04:39:08.425Z,98095.44
2022-08-28T04:40:12.939Z,98096.89
2022-08-28T04:41:17.532Z,98097.48
2022-08-28T04:42:19.398Z,98096.11
2022-08-28T04:43:21.312Z,98098.04
2022-08-28T04:44:22.978Z,98096.59
2022-08-28T04:45:24.786Z,98101.94
2022-08-28T04:46:26.573Z,98095.77
2022-08-28T04:47:39.393Z,98096.11
2022-08-28T04:48:42.317Z,98098.38
2022-08-28T04:49:44.165Z,98097.80
2022-08-28T04:50:49.276Z,98098.44
2022-08-28T04:51:51.405Z,98104.45
2022-08-28T04:52:53.713Z,98100.39
2022-08-28T04:53:56.345Z,98098.77
2022-08-28T04:54:58.088Z,98102.30
2022-08-28T04:56:05.260Z,98101.23
2022-08-28T04:57:07.052Z,98103.67
2022-08-28T04:58:11.501Z,98101.39
2022-08-28T04:59:13.611Z,98098.77
2022-08-28T05:00:15.926Z,98100.66
2022-08-28T05:01:21.979Z,98100.90
2022-08-28T05:02:23.732Z,98095.18
2022-08-28T05:03:25.456Z,98093.39
2022-08-28T05:04:27.857Z,98095.00
2022-08-28T05:05:29.604Z,98093.77
2022-08-28T05:06:33.619Z,98093.31
2022-08-28T05:07:35.325Z,98094.91
2022-08-28T05:08:37.051Z,98095.86
2022-08-28T05:09:38.973Z,98097.20
2022-08-28T05:10:42.025Z,98097.93
2022-08-28T05:11:45.014Z,98096.15
2022-08-28T05:12:46.993Z,98098.84
2022-08-28T05:13:51.077Z,98096.00
2022-08-28T05:14:56.139Z,98096.77
2022-08-28T05:15:58.027Z,98098.44
2022-08-28T05:16:59.864Z,98100.55
2022-08-28T05:18:01.684Z,98100.39
2022-08-28T05:19:03.717Z,98102.84
2022-08-28T05:20:06.084Z,98098.85
2022-08-28T05:21:14.545Z,98097.13
2022-08-28T05:22:16.284Z,98099.41
2022-08-28T05:23:18.326Z,98098.16
2022-08-28T05:24:21.238Z,98100.09
2022-08-28T05:25:23.004Z,98103.95
2022-08-28T05:26:27.053Z,98103.90
2022-08-28T05:27:30.106Z,98105.42
2022-08-28T05:28:31.895Z,98107.05
2022-08-28T05:29:33.551Z,98105.49
2022-08-28T05:30:37.290Z,98108.98
2022-08-28T05:31:41.398Z,98106.31
2022-08-28T05:32:43.350Z,98106.58
2022-08-28T05:33:47.388Z,98114.75
2022-08-28T05:34:49.066Z,98111.53
2022-08-28T05:35:50.744Z,98113.74
2022-08-28T05:36:52.449Z,98117.52
2022-08-28T05:37:54.928Z,98115.05
2022-08-28T05:38:58.125Z,98117.82
2022-08-28T05:40:00.166Z,98118.86
2022-08-28T05:41:03.256Z,98117.86
2022-08-28T05:42:05.662Z,98116.97
2022-08-28T05:43:07.301Z,98120.09
2022-08-28T05:44:12.205Z,98117.63
2022-08-28T05:45:13.922Z,98118.28
2022-08-28T05:46:17.370Z,98117.52
2022-08-28T05:47:21.605Z,98116.89
2022-08-28T05:48:23.478Z,98117.32
2022-08-28T05:49:25.213Z,98116.33
2022-08-28T05:50:27.834Z,98120.13
2022-08-28T05:51:29.662Z,98117.69
2022-08-28T05:52:31.486Z,98119.62
2022-08-28T05:53:38.690Z,98120.14
2022-08-28T05:54:40.317Z,98121.95
2022-08-28T05:55:41.950Z,98123.67
2022-08-28T05:56:45.571Z,98125.69
2022-08-28T05:57:47.357Z,98126.29
2022-08-28T05:58:49.989Z,98124.91
2022-08-28T05:59:51.820Z,98121.83
2022-08-28T06:00:53.465Z,98124.40
2022-08-28T06:01:55.176Z,98123.70
2022-08-28T06:02:58.961Z,98127.02
2022-08-28T06:04:08.479Z,98123.98
2022-08-28T06:05:12.633Z,98127.34
2022-08-28T06:06:14.894Z,98126.15
2022-08-28T06:07:16.658Z,98129.73
2022-08-28T06:08:18.443Z,98132.83
2022-08-28T06:09:29.471Z,98130.11
2022-08-28T06:10:32.367Z,98134.31
2022-08-28T06:11:34.952Z,98128.72
2022-08-28T06:12:36.731Z,98125.36
2022-08-28T06:13:38.541Z,98127.77
2022-08-28T06:14:40.474Z,98126.40
2022-08-28T06:15:43.989Z,98128.02
2022-08-28T06:16:52.440Z,98128.50
2022-08-28T06:17:54.129Z,98126.13
2022-08-28T06:18:56.421Z,98123.67
2022-08-28T06:19:58.285Z,98119.73
2022-08-28T06:21:02.797Z,98116.66
2022-08-28T06:22:07.371Z,98116.20
2022-08-28T06:23:11.124Z,98120.02
2022-08-28T06:24:13.713Z,98119.44
2022-08-28T06:25:15.512Z,98120.19
2022-08-28T06:26:17.441Z,98118.70
2022-08-28T06:27:19.241Z,98121.15
2022-08-28T06:28:24.750Z,98121.93
2022-08-28T06:29:27.710Z,98124.01
2022-08-28T06:30:29.393Z,98124.91
2022-08-28T06:31:33.482Z,98127.14
2022-08-28T06:32:35.372Z,98124.15
2022-08-28T06:33:37.859Z,98125.70
2022-08-28T06:34:39.662Z,98127.46
2022-08-28T06:35:46.151Z,98125.79
2022-08-28T06:36:53.101Z,98125.98
2022-08-28T06:37:55.610Z,98130.41
2022-08-28T06:39:00.096Z,98129.98
2022-08-28T06:40:01.978Z,98131.11
2022-08-28T06:41:09.309Z,98127.91
2022-08-28T06:42:11.013Z,98131.81
2022-08-28T06:43:14.837Z,98129.55
2022-08-28T06:44:20.015Z,98128.48
2022-08-28T06:45:21.805Z,98127.21
2022-08-28T06:46:25.129Z,98125.69
2022-08-28T06:47:27.075Z,98129.52
2022-08-28T06:48:28.850Z,98128.05
2022-08-28T06:49:30.527Z,98130.44
2022-08-28T06:50:32.328Z,98131.95
2022-08-28T06:51:35.173Z,98128.34
2022-08-28T06:52:36.882Z,98130.98
2022-08-28T06:53:45.481Z,98131.55
2022-08-28T06:54:55.331Z,98134.91
2022-08-28T06:56:08.699Z,98132.31
2022-08-28T06:57:10.420Z,98132.97
2022-08-28T06:58:13.207Z,98134.63
2022-08-28T06:59:15.046Z,98135.27
2022-08-28T07:00:16.832Z,98133.71
2022-08-28T07:01:27.040Z,98134.15
2022-08-28T07:02:29.162Z,98132.07
2022-08-28T07:03:31.208Z,98133.45
2022-08-28T07:04:33.743Z,98134.25
2022-08-28T07:05:35.486Z,98130.93
2022-08-28T07:06:40.990Z,98131.18
2022-08-28T07:07:42.951Z,98131.50
2022-08-28T07:08:46.044Z,98131.55
2022-08-28T07:09:48.345Z,98135.38
2022-08-28T07:10:50.018Z,98135.89
2022-08-28T07:11:52.469Z,98134.12
2022-08-28T07:12:54.121Z,98137.23
2022-08-28T07:13:57.289Z,98133.11
2022-08-28T07:14:58.929Z,98134.23
2022-08-28T07:16:00.715Z,98136.79
2022-08-28T07:17:02.497Z,98136.23
2022-08-28T07:18:04.236Z,98134.67
2022-08-28T07:19:08.140Z,98131.95
2022-08-28T07:20:13.096Z,98136.86
2022-08-28T07:21:14.865Z,98136.94
2022-08-28T07:22:16.513Z,98137.09
2022-08-28T07:23:18.217Z,98141.65
2022-08-28T07:24:20.200Z,98139.82
2022-08-28T07:25:21.945Z,98139.86
2022-08-28T07:26:26.106Z,98142.52
2022-08-28T07:27:27.802Z,98142.43
2022-08-28T07:28:29.639Z,98143.64
2022-08-28T07:29:31.384Z,98146.11
2022-08-28T07:30:33.132Z,98147.09
2022-08-28T07:31:35.014Z,98145.46
2022-08-28T07:32:36.880Z,98147.62
2022-08-28T07:33:40.650Z,98150.38
2022-08-28T07:34:42.671Z,98147.09
2022-08-28T07:35:44.577Z,98149.27
2022-08-28T07:36:46.873Z,98148.89
2022-08-28T07:37:49.210Z,98151.44
2022-08-28T07:38:51.665Z,98149.46
2022-08-28T07:39:55.711Z,98148.22
2022-08-28T07:40:57.561Z,98149.73
2022-08-28T07:41:59.278Z,98150.71
2022-08-28T07:43:19.704Z,98150.08
2022-08-28T07:44:40.404Z,98149.75
2022-08-28T07:45:43.059Z,98153.30
2022-08-28T07:46:45.370Z,98150.06
2022-08-28T07:47:47.160Z,98153.80
2022-08-28T07:48:48.884Z,98153.34
2022-08-28T07:49:52.445Z,98152.49
2022-08-28T07:50:55.082Z,98152.20
2022-08-28T07:51:57.189Z,98151.55
2022-08-28T07:52:58.837Z,98152.07
2022-08-28T07:54:02.882Z,98149.41
2022-08-28T07:55:06.313Z,98148.95
2022-08-28T07:56:08.132Z,98150.46
2022-08-28T07:57:10.313Z,98151.02
2022-08-28T07:58:13.664Z,98150.02
2022-08-28T07:59:19.165Z,98149.38
2022-08-28T08:00:21.897Z,98149.99
2022-08-28T08:01:24.074Z,98152.17
2022-08-28T08:02:26.154Z,98156.71
2022-08-28T08:03:30.051Z,98153.80
2022-08-28T08:04:32.006Z,98152.73
2022-08-28T08:05:33.651Z,98151.92
2022-08-28T08:06:37.374Z,98155.38
2022-08-28T08:07:39.901Z,98154.72
2022-08-28T08:08:45.283Z,98157.66
2022-08-28T08:09:46.961Z,98156.34
2022-08-28T08:11:01.766Z,98156.22
2022-08-28T08:12:03.747Z,98158.85
2022-08-28T08:13:05.601Z,98155.66
2022-08-28T08:14:10.126Z,98156.17
2022-08-28T08:15:13.228Z,98157.94
2022-08-28T08:16:19.327Z,98157.89
2022-08-28T08:17:21.336Z,98155.66
2022-08-28T08:18:23.404Z,98155.03
2022-08-28T08:19:25.922Z,98156.72
2022-08-28T08:20:28.032Z,98159.66
2022-08-28T08:21:30.546Z,98155.89
2022-08-28T08:22:32.714Z,98161.54
2022-08-28T08:23:38.714Z,98161.64
2022-08-28T08:24:41.198Z,98160.01
2022-08-28T08:25:42.860Z,98160.79
2022-08-28T08:26:46.923Z,98161.35
2022-08-28T08:27:51.940Z,98160.36
2022-08-28T08:28:53.674Z,98158.34
2022-08-28T08:29:55.343Z,98159.33
2022-08-28T08:31:13.799Z,98161.17
2022-08-28T08:32:15.549Z,98160.01
2022-08-28T08:33:17.222Z,98158.45
2022-08-28T08:34:19.439Z,98161.65
2022-08-28T08:35:21.145Z,98165.33
2022-08-28T08:36:25.444Z,98165.52
2022-08-28T08:37:27.297Z,98166.51
2022-08-28T08:38:30.667Z,98165.34
2022-08-28T08:39:33.789Z,98166.66
2022-08-28T08:40:35.613Z,98168.27
2022-08-28T08:41:48.261Z,98165.55
2022-08-28T08:42:57.032Z,98171.17
2022-08-28T08:44:33.734Z,98171.67
2022-08-28T08:45:38.214Z,98171.42
2022-08-28T08:46:53.238Z,98169.11
2022-08-28T08:48:00.461Z,98170.51
2022-08-28T08:49:10.525Z,98172.09
2022-08-28T08:50:26.693Z,98172.20
2022-08-28T08:51:43.987Z,98171.59
2022-08-28T08:53:07.118Z,98179.25
2022-08-28T08:54:19.796Z,98180.42
2022-08-28T08:55:32.157Z,98183.56
2022-08-28T08:56:34.877Z,98180.30
2022-08-28T08:57:39.054Z,98182.45
2022-08-28T08:58:49.083Z,98187.67
2022-08-28T08:59:50.930Z,98184.23
2022-08-28T09:00:57.919Z,98180.52
2022-08-28T09:02:12.615Z,98184.52
2022-08-28T09:03:22.612Z,98184.02
2022-08-28T09:04:49.008Z,98185.75
2022-08-28T09:06:04.377Z,98187.63
2022-08-28T09:07:53.290Z,98190.77
2022-08-28T09:09:05.126Z,98188.89
2022-08-28T09:10:12.290Z,98192.70
2022-08-28T09:11:44.753Z,98189.55
2022-08-28T09:13:12.037Z,98188.65
2022-08-28T09:14:30.802Z,98192.34
2022-08-28T09:15:38.839Z,98188.54
2022-08-28T09:16:47.040Z,98192.64
2022-08-28T09:18:12.583Z,98192.38
2022-08-28T09:19:21.050Z,98192.23
2022-08-28T09:20:32.927Z,98196.57
2022-08-28T09:21:40.981Z,98199.08
2022-08-28T09:22:46.741Z,98197.73
2022-08-28T09:23:48.369Z,98200.27
2022-08-28T09:24:50.474Z,98197.25
2022-08-28T09:25:57.187Z,98201.04
2022-08-28T09:27:13.693Z,98197.08
2022-08-28T09:28:21.607Z,98199.84
2022-08-28T09:29:39.569Z,98201.89
2022-08-28T09:30:43.502Z,98199.52
2022-08-28T09:31:45.283Z,98199.14
2022-08-28T09:33:00.943Z,98199.52
2022-08-28T09:34:27.624Z,98197.14
2022-08-28T09:35:32.300Z,98197.45
2022-08-28T09:36:37.019Z,98199.49
2022-08-28T09:37:39.373Z,98197.36
2022-08-28T09:38:41.425Z,98197.67
2022-08-28T09:39:46.632Z,98197.33
2022-08-28T09:41:25.268Z,98197.33
2022-08-28T09:42:45.145Z,98200.33
2022-08-28T09:43:46.886Z,98199.85
2022-08-28T09:45:09.527Z,98201.50
2022-08-28T09:46:24.675Z,98200.23
2022-08-28T09:47:46.205Z,98198.85
2022-08-28T09:48:53.678Z,98200.71
2022-08-28T09:49:55.808Z,98200.34
2022-08-28T09:51:04.865Z,98200.67
2022-08-28T09:52:24.990Z,98201.73
2022-08-28T09:53:29.121Z,98200.12
2022-08-28T09:54:43.557Z,98203.55
2022-08-28T09:55:51.833Z,98204.41
2022-08-28T09:56:55.926Z,98198.40
2022-08-28T09:57:58.417Z,98202.84
2022-08-28T09:59:08.397Z,98200.41
2022-08-28T10:00:10.753Z,98200.96
2022-08-28T10:01:44.750Z,98199.93
2022-08-28T10:03:07.518Z,98199.30
2022-08-28T10:04:47.380Z,98201.44
2022-08-28T10:06:02.123Z,98203.34
2022-08-28T10:07:20.201Z,98202.05
2022-08-28T10:08:49.413Z,98202.44
2022-08-28T10:10:18.790Z,98202.92
2022-08-28T10:11:37.118Z,98203.09
2022-08-28T10:12:41.557Z,98204.30
2022-08-28T10:14:00.822Z,98205.48
2022-08-28T10:15:15.452Z,98203.71
2022-08-28T10:16:17.084Z,98206.80
2022-08-28T10:17:34.532Z,98203.63
2022-08-28T10:18:48.194Z,98201.02
2022-08-28T10:20:08.327Z,98198.48
2022-08-28T10:21:20.757Z,98199.11
2022-08-28T10:22:47.362Z,98194.52
2022-08-28T10:24:27.644Z,98196.42
2022-08-28T10:25:49.589Z,98193.81
2022-08-28T10:27:06.206Z,98192.77
2022-08-28T10:28:10.806Z,98196.91
2022-08-28T10:29:35.200Z,98196.02
2022-08-28T10:31:05.669Z,98191.55
2022-08-28T10:32:50.234Z,98198.02
2022-08-28T10:33:51.793Z,98195.09
2022-08-28T10:35:09.090Z,98200.23
2022-08-28T10:36:28.765Z,98198.64
2022-08-28T10:38:04.486Z,98200.48
2022-08-28T10:39:19.691Z,98205.73
2022-08-28T10:40:36.509Z,98204.31
2022-08-28T10:41:50.606Z,98203.38
2022-08-28T10:43:24.338Z,98203.05
2022-08-28T10:44:52.425Z,98200.84
2022-08-28T10:45:55.063Z,98201.86
2022-08-28T10:46:58.974Z,98201.94
2022-08-28T10:48:27.676Z,98198.59
2022-08-28T10:49:37.002Z,98200.79
2022-08-28T10:50:47.645Z,98200.41
2022-08-28T10:51:55.201Z,98194.52
2022-08-28T10:53:07.171Z,98197.77
2022-08-28T10:54:44.005Z,98201.98
2022-08-28T10:55:57.222Z,98199.61
2022-08-28T10:57:14.281Z,98200.88
2022-08-28T10:58:24.488Z,98202.11
2022-08-28T10:59:32.888Z,98207.35
2022-08-28T11:00:39.793Z,98207.84
2022-08-28T11:01:43.156Z,98202.84
2022-08-28T11:02:50.526Z,98203.64
2022-08-28T11:03:55.578Z,98201.33
2022-08-28T11:04:58.823Z,98205.23
2022-08-28T11:06:12.894Z,98200.28
2022-08-28T11:07:27.608Z,98198.53
2022-08-28T11:08:33.853Z,98201.37
2022-08-28T11:09:48.776Z,98203.08
2022-08-28T11:10:53.229Z,98207.86
2022-08-28T11:12:03.671Z,98203.75
2022-08-28T11:13:09.647Z,98204.55
2022-08-28T11:14:25.929Z,98209.07
2022-08-28T11:15:34.218Z,98204.08
2022-08-28T11:16:46.979Z,98206.38
2022-08-28T11:17:50.229Z,98208.77
2022-08-28T11:19:00.791Z,98207.19
2022-08-28T11:20:24.778Z,98206.48
2022-08-28T11:21:54.551Z,98206.58
2022-08-28T11:23:10.436Z,98201.48
2022-08-28T11:24:33.537Z,98202.96
2022-08-28T11:25:41.040Z,98199.69
2022-08-28T11:26:58.701Z,98200.27
2022-08-28T11:28:35.527Z,98198.64
2022-08-28T11:29:58.753Z,98203.36
2022-08-28T11:31:06.240Z,98202.23
2022-08-28T11:32:38.103Z,98202.54
2022-08-28T11:33:49.867Z,98203.68
2022-08-28T11:35:37.367Z,98203.81
2022-08-28T11:36:39.814Z,98205.15
2022-08-28T11:37:51.229Z,98202.50
2022-08-28T11:38:55.746Z,98203.83
2022-08-28T11:40:33.533Z,98202.21
2022-08-28T11:41:39.020Z,98200.52
2022-08-28T11:42:40.768Z,98204.83
2022-08-28T11:43:45.678Z,98201.35
2022-08-28T11:44:47.417Z,98206.03
2022-08-28T11:45:55.099Z,98203.49
2022-08-28T11:47:31.542Z,98201.73
2022-08-28T11:48:36.225Z,98202.73
2022-08-28T11:49:43.328Z,98201.52
2022-08-28T11:51:03.301Z,98205.79
2022-08-28T11:52:36.144Z,98200.36
2022-08-28T11:53:49.792Z,98201.08
2022-08-28T11:55:33.528Z,98202.46
2022-08-28T11:57:04.708Z,98199.63
2022-08-28T11:58:41.493Z,98197.95
2022-08-28T12:00:03.570Z,98198.88
2022-08-28T12:01:12.141Z,98197.38
2022-08-28T12:02:39.151Z,98199.47
2022-08-28T12:03:56.885Z,98198.98
2022-08-28T12:04:58.758Z,98199.97
2022-08-28T12:06:01.475Z,98198.09
2022-08-28T12:07:22.009Z,98198.14
2022-08-28T12:08:51.123Z,98197.91
2022-08-28T12:09:53.137Z,98191.88
2022-08-28T12:10:57.836Z,98198.98
2022-08-28T12:12:12.276Z,98194.40
2022-08-28T12:13:54.623Z,98194.64
2022-08-28T12:15:07.540Z,98195.71
2022-08-28T12:16:09.419Z,98198.05
2022-08-28T12:17:24.547Z,98194.59
2022-08-28T12:18:42.609Z,98192.79
2022-08-28T12:19:58.617Z,98189.68
2022-08-28T12:21:05.236Z,98190.45
2022-08-28T12:22:22.669Z,98186.75
2022-08-28T12:23:43.036Z,98185.25
2022-08-28T12:24:54.613Z,98184.70
2022-08-28T12:26:07.392Z,98183.42
2022-08-28T12:27:10.065Z,98182.38
2022-08-28T12:28:37.585Z,98179.68
2022-08-28T12:29:48.690Z,98178.69
2022-08-28T12:31:09.068Z,98181.41
2022-08-28T12:32:23.621Z,98181.23
2022-08-28T12:33:49.021Z,98174.79
2022-08-28T12:35:30.464Z,98176.13
2022-08-28T12:36:32.388Z,98179.98
2022-08-28T12:37:51.300Z,98182.70
2022-08-28T12:39:00.274Z,98176.41
2022-08-28T12:40:26.340Z,98177.55
2022-08-28T12:41:28.269Z,98178.63
2022-08-28T12:42:33.827Z,98175.36
2022-08-28T12:43:46.800Z,98176.91
2022-08-28T12:44:49.155Z,98176.25
2022-08-28T12:45:53.671Z,98175.14
2022-08-28T12:46:56.545Z,98180.81
2022-08-28T12:48:04.577Z,98179.84
2022-08-28T12:49:36.238Z,98175.64
2022-08-28T12:50:39.835Z,98176.75
2022-08-28T12:51:41.493Z,98176.31
2022-08-28T12:52:53.382Z,98176.58
2022-08-28T12:53:58.855Z,98172.54
2022-08-28T12:55:00.511Z,98172.80
2022-08-28T12:56:02.256Z,98176.88
2022-08-28T12:57:08.274Z,98174.83
2022-08-28T12:58:30.926Z,98176.80
2022-08-28T12:59:37.887Z,98174.73
2022-08-28T13:00:53.203Z,98177.94
2022-08-28T13:02:02.833Z,98177.46
2022-08-28T13:03:07.538Z,98175.89
2022-08-28T13:04:33.707Z,98177.30
2022-08-28T13:05:41.668Z,98176.58